createdAt,value
2022-09-16T00:02:30.813Z,14.98
2022-09-16T00:07:33.382Z,14.98
2022-09-16T00:12:37.351Z,15.00
2022-09-16T00:17:39.920Z,15.01
2022-09-16T00:22:42.449Z,15.04
2022-09-16T00:27:48.461Z,15.08
2022-09-16T00:32:51.027Z,15.05
2022-09-16T00:37:53.587Z,15.10
2022-09-16T00:42:57.570Z,15.06
2022-09-16T00:48:01.492Z,15.10
2022-09-16T00:53:04.065Z,15.07
2022-09-16T00:58:13.011Z,15.07
2022-09-16T01:03:15.582Z,15.02
2022-09-16T01:08:18.181Z,15.05
2022-09-16T01:13:22.195Z,15.11
2022-09-16T01:18:27.998Z,15.11
2022-09-16T01:23:48.426Z,15.08
2022-09-16T01:29:08.685Z,15.04
2022-09-16T01:34:17.006Z,15.06
2022-09-16T01:39:23.629Z,15.10
2022-09-16T01:44:28.430Z,15.10
2022-09-16T01:49:38.170Z,15.02
2022-09-16T01:54:44.113Z,14.97
2022-09-16T01:59:50.155Z,14.92
2022-09-16T02:04:56.117Z,14.93
2022-09-16T02:10:04.751Z,14.94
2022-09-16T02:15:09.293Z,14.94
2022-09-16T02:20:15.586Z,14.81
2022-09-16T02:25:19.400Z,14.70
2022-09-16T02:30:23.194Z,14.62
2022-09-16T02:35:28.170Z,14.58
2022-09-16T02:40:34.026Z,14.52
2022-09-16T02:45:42.061Z,14.50
2022-09-16T02:50:49.550Z,14.44
2022-09-16T02:55:55.605Z,14.42
2022-09-16T03:00:58.967Z,14.33
2022-09-16T03:06:16.362Z,14.34
2022-09-16T03:11:30.661Z,14.36
2022-09-16T03:16:37.559Z,14.28
2022-09-16T03:21:44.702Z,14.22
2022-09-16T03:26:51.569Z,14.08
2022-09-16T03:31:57.364Z,13.97
2022-09-16T03:37:01.258Z,13.82
2022-09-16T03:42:07.694Z,13.69
2022-09-16T03:47:10.633Z,13.67
2022-09-16T03:52:13.195Z,13.69
2022-09-16T03:57:17.180Z,13.70
2022-09-16T04:02:19.810Z,13.72
2022-09-16T04:07:22.384Z,13.65
2022-09-16T04:12:26.338Z,13.65
2022-09-16T04:17:28.907Z,13.63
2022-09-16T04:22:31.859Z,13.57
2022-09-16T04:27:35.781Z,13.50
2022-09-16T04:32:38.344Z,13.39
2022-09-16T04:37:40.863Z,13.30
2022-09-16T04:42:49.020Z,13.17
2022-09-16T04:47:56.485Z,13.12
2022-09-16T04:52:59.043Z,13.04
2022-09-16T04:58:02.965Z,12.99
2022-09-16T05:03:05.573Z,12.94
2022-09-16T05:08:08.160Z,12.85
2022-09-16T05:13:12.087Z,12.79
2022-09-16T05:18:14.645Z,12.80
2022-09-16T05:23:17.197Z,12.87
2022-09-16T05:28:21.433Z,12.88
2022-09-16T05:33:24.041Z,12.85
2022-09-16T05:38:26.585Z,12.73
2022-09-16T05:43:30.900Z,12.65
2022-09-16T05:48:33.737Z,12.64
2022-09-16T05:53:36.364Z,12.65
2022-09-16T05:58:40.318Z,12.68
2022-09-16T06:03:44.043Z,12.75
2022-09-16T06:08:46.685Z,12.81
2022-09-16T06:13:53.247Z,12.85
2022-09-16T06:18:57.216Z,12.96
2022-09-16T06:24:00.264Z,13.00
2022-09-16T06:29:04.539Z,13.03
2022-09-16T06:34:07.476Z,13.10
2022-09-16T06:39:12.428Z,13.22
2022-09-16T06:44:16.342Z,13.40
2022-09-16T06:49:18.919Z,13.50
2022-09-16T06:54:21.502Z,13.62
2022-09-16T06:59:25.437Z,13.75
2022-09-16T07:04:28.047Z,13.86
2022-09-16T07:09:30.633Z,14.00
2022-09-16T07:14:34.821Z,14.15
2022-09-16T07:19:37.861Z,14.26
2022-09-16T07:24:40.579Z,14.30
2022-09-16T07:29:44.616Z,14.37
2022-09-16T07:34:47.186Z,14.36
2022-09-16T07:39:50.488Z,14.37
2022-09-16T07:44:54.425Z,14.43
2022-09-16T07:49:56.953Z,14.50
2022-09-16T07:54:59.590Z,14.61
2022-09-16T08:00:03.966Z,14.67
2022-09-16T08:05:06.930Z,14.68
2022-09-16T08:10:09.786Z,14.81
2022-09-16T08:15:13.831Z,14.92
2022-09-16T08:20:16.515Z,14.98
2022-09-16T08:25:19.209Z,15.13
2022-09-16T08:30:23.218Z,15.34
2022-09-16T08:35:26.576Z,15.54
2022-09-16T08:40:32.362Z,15.80
2022-09-16T08:45:40.893Z,15.92
2022-09-16T08:50:46.945Z,15.94
2022-09-16T08:55:50.849Z,16.04
2022-09-16T09:00:57.303Z,16.20
2022-09-16T09:06:00.963Z,16.37
2022-09-16T09:11:09.376Z,16.54
2022-09-16T09:16:18.917Z,16.87
2022-09-16T09:21:27.282Z,17.28
2022-09-16T09:26:33.540Z,17.74
2022-09-16T09:31:44.705Z,17.90
2022-09-16T09:36:53.153Z,17.72
2022-09-16T09:41:58.857Z,17.31
2022-09-16T09:47:04.361Z,17.10
2022-09-16T09:52:09.037Z,17.10
2022-09-16T09:57:14.184Z,17.28
2022-09-16T10:02:19.255Z,17.60
2022-09-16T10:07:23.895Z,17.84
2022-09-16T10:12:30.548Z,17.99
2022-09-16T10:17:34.472Z,17.75
2022-09-16T10:22:37.262Z,17.71
2022-09-16T10:27:39.984Z,17.83
2022-09-16T10:32:52.505Z,17.64
2022-09-16T10:37:56.273Z,17.71
2022-09-16T10:43:02.948Z,17.85
2022-09-16T10:48:08.811Z,18.09
2022-09-16T10:53:22.904Z,18.59
2022-09-16T10:58:25.792Z,19.04
2022-09-16T11:04:01.663Z,19.15
2022-09-16T11:09:12.267Z,18.93
2022-09-16T11:14:18.601Z,18.93
2022-09-16T11:19:26.429Z,19.12
2022-09-16T11:24:46.601Z,19.31
2022-09-16T11:30:16.280Z,19.12
2022-09-16T11:35:30.018Z,18.48
2022-09-16T11:40:35.404Z,17.73
2022-09-16T11:45:43.457Z,17.16
2022-09-16T11:50:52.168Z,17.06
2022-09-16T11:55:57.741Z,17.09
2022-09-16T12:01:04.326Z,17.24
2022-09-16T12:06:11.219Z,17.52
2022-09-16T12:11:19.088Z,17.61
2022-09-16T12:16:27.094Z,17.85
2022-09-16T12:21:35.452Z,17.94
2022-09-16T12:26:39.893Z,18.02
2022-09-16T12:31:45.065Z,18.07
2022-09-16T12:36:51.272Z,17.96
2022-09-16T12:42:09.819Z,18.10
2022-09-16T12:47:21.023Z,17.94
2022-09-16T12:52:41.033Z,17.41
2022-09-16T12:57:49.138Z,17.52
2022-09-16T13:02:53.253Z,18.03
2022-09-16T13:07:58.272Z,18.31
2022-09-16T13:13:02.464Z,18.25
2022-09-16T13:18:22.137Z,18.08
2022-09-16T13:23:32.403Z,18.15
2022-09-16T13:28:38.698Z,18.15
2022-09-16T13:33:41.964Z,18.05
2022-09-16T13:38:49.550Z,17.90
2022-09-16T13:43:53.912Z,17.74
2022-09-16T13:48:57.855Z,17.88
2022-09-16T13:54:04.390Z,17.91
2022-09-16T13:59:16.273Z,17.97
2022-09-16T14:04:23.679Z,17.96
2022-09-16T14:09:36.798Z,17.84
2022-09-16T14:14:47.798Z,17.85
2022-09-16T14:19:53.746Z,17.67
2022-09-16T14:25:12.606Z,17.43
2022-09-16T14:30:17.926Z,17.45
2022-09-16T14:35:22.410Z,17.56
2022-09-16T14:40:27.812Z,17.40
2022-09-16T14:45:31.384Z,17.54
2022-09-16T14:50:37.323Z,17.76
2022-09-16T14:55:49.285Z,18.07
2022-09-16T15:00:54.193Z,18.67
2022-09-16T15:05:58.625Z,19.28
2022-09-16T15:11:04.666Z,19.74
2022-09-16T15:16:11.859Z,19.80
2022-09-16T15:21:21.687Z,19.55
2022-09-16T15:26:27.297Z,19.14
2022-09-16T15:31:34.807Z,19.00
2022-09-16T15:36:38.896Z,19.27
2022-09-16T15:41:42.790Z,19.56
2022-09-16T15:46:46.931Z,19.30
2022-09-16T15:51:51.426Z,18.76
2022-09-16T15:57:02.086Z,18.99
2022-09-16T16:02:07.625Z,19.05
2022-09-16T16:07:10.336Z,19.37
2022-09-16T16:12:16.176Z,19.37
2022-09-16T16:17:20.045Z,19.08
2022-09-16T16:22:22.863Z,18.84
2022-09-16T16:27:26.857Z,18.64
2022-09-16T16:32:30.911Z,18.39
2022-09-16T16:37:45.901Z,17.91
2022-09-16T16:42:50.606Z,17.85
2022-09-16T16:47:53.216Z,17.76
2022-09-16T16:52:55.798Z,17.60
2022-09-16T16:57:59.706Z,17.18
2022-09-16T17:03:02.290Z,16.76
2022-09-16T17:08:05.082Z,16.71
2022-09-16T17:13:09.034Z,16.42
2022-09-16T17:18:11.580Z,16.32
2022-09-16T17:23:14.124Z,16.27
2022-09-16T17:28:18.975Z,16.27
2022-09-16T17:33:21.500Z,16.07
2022-09-16T17:38:24.049Z,15.83
2022-09-16T17:43:32.216Z,15.74
2022-09-16T17:48:36.386Z,15.61
2022-09-16T17:53:39.436Z,15.46
2022-09-16T17:58:44.322Z,15.35
2022-09-16T18:03:48.672Z,15.31
2022-09-16T18:08:51.907Z,15.26
2022-09-16T18:13:56.597Z,15.23
2022-09-16T18:19:00.142Z,15.22
2022-09-16T18:24:03.782Z,15.13
2022-09-16T18:29:10.573Z,15.07
2022-09-16T18:34:14.411Z,15.18
2022-09-16T18:39:18.285Z,15.08
2022-09-16T18:44:23.692Z,15.06
2022-09-16T18:49:28.963Z,14.91
2022-09-16T18:54:33.123Z,14.89
2022-09-16T18:59:37.106Z,14.80
2022-09-16T19:04:41.218Z,14.56
2022-09-16T19:09:45.432Z,14.47
2022-09-16T19:14:49.637Z,14.49
2022-09-16T19:19:52.196Z,14.54
2022-09-16T19:24:54.737Z,14.60
2022-09-16T19:29:58.663Z,14.52
2022-09-16T19:35:01.216Z,14.43
2022-09-16T19:40:03.841Z,14.35
2022-09-16T19:45:08.383Z,14.32
2022-09-16T19:50:11.734Z,14.30
2022-09-16T19:55:14.294Z,14.39
2022-09-16T20:00:18.310Z,14.39
2022-09-16T20:05:20.867Z,14.45
2022-09-16T20:10:23.677Z,14.33
2022-09-16T20:15:27.606Z,14.21
2022-09-16T20:20:30.338Z,14.11
2022-09-16T20:25:33.257Z,14.03
2022-09-16T20:30:37.212Z,14.00
2022-09-16T20:35:39.750Z,14.11
2022-09-16T20:40:44.854Z,14.03
2022-09-16T20:45:48.832Z,13.89
2022-09-16T20:50:51.396Z,13.86
2022-09-16T20:55:54.272Z,13.80
2022-09-16T21:01:03.411Z,13.83
2022-09-16T21:06:06.992Z,13.84
2022-09-16T21:11:11.367Z,13.76
2022-09-16T21:16:16.597Z,13.67
2022-09-16T21:21:20.478Z,13.73
2022-09-16T21:26:23.870Z,13.78
2022-09-16T21:31:28.595Z,13.77
2022-09-16T21:36:31.574Z,13.65
2022-09-16T21:41:34.639Z,13.63
2022-09-16T21:46:41.235Z,13.52
2022-09-16T21:51:44.119Z,13.41
2022-09-16T21:56:46.664Z,13.10
2022-09-16T22:01:51.444Z,13.00
2022-09-16T22:06:55.532Z,12.91
2022-09-16T22:11:59.160Z,12.86
2022-09-16T22:17:03.076Z,12.80
2022-09-16T22:22:05.732Z,12.67
2022-09-16T22:27:08.278Z,12.57
2022-09-16T22:32:12.219Z,12.52
2022-09-16T22:37:14.779Z,12.49
2022-09-16T22:42:17.343Z,12.41
2022-09-16T22:47:21.425Z,12.48
2022-09-16T22:52:24.074Z,12.42
2022-09-16T22:57:26.632Z,12.33
2022-09-16T23:02:30.933Z,12.28
2022-09-16T23:07:33.782Z,12.21
2022-09-16T23:12:36.538Z,12.11
2022-09-16T23:17:42.292Z,11.97
2022-09-16T23:22:44.845Z,11.87
2022-09-16T23:27:47.621Z,11.81
2022-09-16T23:32:51.513Z,11.74
2022-09-16T23:37:56.785Z,11.62
2022-09-16T23:42:59.341Z,11.59
2022-09-16T23:48:03.541Z,11.53
2022-09-16T23:53:06.488Z,11.43
2022-09-16T23:58:09.068Z,11.38
